createdAt,value
2022-10-15T00:01:45.578Z,10.85
2022-10-15T00:04:14.110Z,10.85
2022-10-15T00:06:42.277Z,10.73
2022-10-15T00:09:10.728Z,10.57
2022-10-15T00:11:40.263Z,10.00
2022-10-15T00:14:08.912Z,9.98
2022-10-15T00:16:37.181Z,10.40
2022-10-15T00:19:05.855Z,10.20
2022-10-15T00:21:34.017Z,10.90
2022-10-15T00:24:02.775Z,10.52
2022-10-15T00:26:32.672Z,10.70
2022-10-15T00:29:03.157Z,10.45
2022-10-15T00:31:32.613Z,10.18
2022-10-15T00:34:02.871Z,11.35
2022-10-15T00:36:36.466Z,10.55
2022-10-15T00:39:06.795Z,10.27
2022-10-15T00:41:38.559Z,9.68
2022-10-15T00:44:21.930Z,9.70
2022-10-15T00:46:54.661Z,10.10
2022-10-15T00:49:36.477Z,10.68
2022-10-15T00:52:14.373Z,10.20
2022-10-15T00:54:56.202Z,10.45
2022-10-15T00:57:25.853Z,11.10
2022-10-15T00:59:58.818Z,10.48
2022-10-15T01:02:26.871Z,10.13
2022-10-15T01:04:56.009Z,10.57
2022-10-15T01:07:24.665Z,12.38
2022-10-15T01:09:52.991Z,13.45
2022-10-15T01:12:46.868Z,14.50
2022-10-15T01:18:03.041Z,13.65
2022-10-15T01:20:59.899Z,12.30
2022-10-15T01:23:43.587Z,12.25
2022-10-15T01:26:12.106Z,11.85
2022-10-15T01:28:59.399Z,12.20
2022-10-15T01:31:54.558Z,12.63
2022-10-15T01:34:30.012Z,11.05
2022-10-15T01:37:18.042Z,10.80
2022-10-15T01:39:54.201Z,10.93
2022-10-15T01:42:35.619Z,10.23
2022-10-15T01:45:11.325Z,10.85
2022-10-15T01:47:58.474Z,11.77
2022-10-15T01:50:30.967Z,11.07
2022-10-15T01:53:01.283Z,12.23
2022-10-15T01:55:31.706Z,10.35
2022-10-15T01:58:03.134Z,10.70
2022-10-15T02:00:31.546Z,10.55
2022-10-15T02:03:04.576Z,11.82
2022-10-15T02:05:45.320Z,9.52
2022-10-15T02:08:28.453Z,10.77
2022-10-15T02:11:11.904Z,11.00
2022-10-15T02:14:16.152Z,11.57
2022-10-15T02:17:10.293Z,10.75
2022-10-15T02:20:22.813Z,10.73
2022-10-15T02:23:22.065Z,10.07
2022-10-15T02:26:13.113Z,10.55
2022-10-15T02:29:03.240Z,11.15
2022-10-15T02:31:53.089Z,10.88
2022-10-15T02:34:42.559Z,11.77
2022-10-15T02:37:33.271Z,15.00
2022-10-15T02:40:25.133Z,13.60
2022-10-15T02:43:15.853Z,12.68
2022-10-15T02:46:07.307Z,12.93
2022-10-15T02:48:55.874Z,12.27
2022-10-15T02:51:44.067Z,12.32
2022-10-15T02:54:36.509Z,11.60
2022-10-15T02:57:25.052Z,11.45
2022-10-15T03:00:14.630Z,11.98
2022-10-15T03:03:03.142Z,12.52
2022-10-15T03:05:52.167Z,12.20
2022-10-15T03:08:42.811Z,13.48
2022-10-15T03:11:32.757Z,12.95
2022-10-15T03:14:23.589Z,12.80
2022-10-15T03:17:12.347Z,11.18
2022-10-15T03:20:01.700Z,10.15
2022-10-15T03:22:52.117Z,10.98
2022-10-15T03:25:41.228Z,9.77
2022-10-15T03:28:32.488Z,10.30
2022-10-15T03:31:21.747Z,9.75
2022-10-15T03:34:11.914Z,10.32
2022-10-15T03:37:01.462Z,10.77
2022-10-15T03:39:50.979Z,9.63
2022-10-15T03:42:40.469Z,9.90
2022-10-15T03:45:31.532Z,8.85
2022-10-15T03:48:32.771Z,9.82
2022-10-15T03:51:24.485Z,9.75
2022-10-15T03:54:21.579Z,11.10
2022-10-15T03:57:13.566Z,10.77
2022-10-15T04:00:08.771Z,9.57
2022-10-15T04:03:02.969Z,10.55
2022-10-15T04:05:54.106Z,12.77
2022-10-15T04:08:47.121Z,12.68
2022-10-15T04:11:45.942Z,11.93
2022-10-15T04:14:36.585Z,12.25
2022-10-15T04:17:25.622Z,11.15
2022-10-15T04:20:14.575Z,11.98
2022-10-15T04:23:06.875Z,11.70
2022-10-15T04:26:00.569Z,11.18
2022-10-15T04:28:49.527Z,11.05
2022-10-15T04:31:39.510Z,9.90
2022-10-15T04:34:29.369Z,10.00
2022-10-15T04:37:18.217Z,10.93
2022-10-15T04:40:08.131Z,10.93
2022-10-15T04:42:56.282Z,10.93
2022-10-15T04:45:45.245Z,9.55
2022-10-15T04:48:43.024Z,10.90
2022-10-15T04:51:35.148Z,11.20
2022-10-15T04:54:29.911Z,11.60
2022-10-15T04:57:24.855Z,9.95
2022-10-15T05:00:15.530Z,10.95
2022-10-15T05:03:06.395Z,10.68
2022-10-15T05:06:15.232Z,10.77
2022-10-15T05:09:04.403Z,10.98
2022-10-15T05:11:56.070Z,12.68
2022-10-15T05:14:45.607Z,11.20
2022-10-15T05:17:24.010Z,11.25
2022-10-15T05:19:52.776Z,11.93
2022-10-15T05:22:25.712Z,12.57
2022-10-15T05:24:58.296Z,12.38
2022-10-15T05:27:32.081Z,12.85
2022-10-15T05:30:01.659Z,11.80
2022-10-15T05:32:41.941Z,12.52
2022-10-15T05:35:13.002Z,14.57
2022-10-15T05:37:53.809Z,12.07
2022-10-15T05:40:22.205Z,10.60
2022-10-15T05:43:07.260Z,11.55
2022-10-15T05:45:35.623Z,10.68
2022-10-15T05:48:06.694Z,10.32
2022-10-15T05:50:35.794Z,9.57
2022-10-15T05:53:06.794Z,9.93
2022-10-15T05:55:35.387Z,10.10
2022-10-15T05:58:05.338Z,9.07
2022-10-15T06:00:33.760Z,9.85
2022-10-15T06:03:01.739Z,10.32
2022-10-15T06:05:34.024Z,9.32
2022-10-15T06:08:02.741Z,9.60
2022-10-15T06:10:34.849Z,9.23
2022-10-15T06:13:03.008Z,7.88
2022-10-15T06:15:31.197Z,7.20
2022-10-15T06:18:00.425Z,7.90
2022-10-15T06:20:38.166Z,8.30
2022-10-15T06:23:13.281Z,8.60
2022-10-15T06:25:41.418Z,8.47
2022-10-15T06:28:09.987Z,7.95
2022-10-15T06:30:47.089Z,8.98
2022-10-15T06:33:28.812Z,8.32
2022-10-15T06:36:43.423Z,8.02
2022-10-15T06:39:12.508Z,8.38
2022-10-15T06:41:43.187Z,7.57
2022-10-15T06:44:12.225Z,7.72
2022-10-15T06:46:41.051Z,6.75
2022-10-15T06:49:09.524Z,6.82
2022-10-15T06:51:38.394Z,6.57
2022-10-15T06:54:07.004Z,6.38
2022-10-15T06:56:35.025Z,6.55
2022-10-15T06:59:03.448Z,6.95
2022-10-15T07:01:32.182Z,6.85
2022-10-15T07:04:01.007Z,7.00
2022-10-15T07:06:29.711Z,7.53
2022-10-15T07:08:58.497Z,6.68
2022-10-15T07:11:26.523Z,7.43
2022-10-15T07:13:54.845Z,6.55
2022-10-15T07:16:23.304Z,6.43
2022-10-15T07:18:51.469Z,6.40
2022-10-15T07:21:19.993Z,6.38
2022-10-15T07:23:48.049Z,7.00
2022-10-15T07:26:16.073Z,6.40
2022-10-15T07:28:44.069Z,6.45
2022-10-15T07:31:12.167Z,6.40
2022-10-15T07:33:43.046Z,6.80
2022-10-15T07:36:12.990Z,6.93
2022-10-15T07:38:42.628Z,6.45
2022-10-15T07:41:11.770Z,6.40
2022-10-15T07:43:45.016Z,6.25
2022-10-15T07:46:13.689Z,6.03
2022-10-15T07:48:41.815Z,5.97
2022-10-15T07:51:13.420Z,5.82
2022-10-15T07:53:44.206Z,6.53
2022-10-15T07:56:13.896Z,6.72
2022-10-15T07:58:43.313Z,6.80
2022-10-15T08:01:11.756Z,6.60
2022-10-15T08:03:39.934Z,6.43
2022-10-15T08:06:08.666Z,6.43
2022-10-15T08:08:37.978Z,7.03
2022-10-15T08:11:11.572Z,6.20
2022-10-15T08:13:42.210Z,6.63
2022-10-15T08:16:12.732Z,6.45
2022-10-15T08:18:41.491Z,7.32
2022-10-15T08:21:11.613Z,6.38
2022-10-15T08:23:40.582Z,5.97
2022-10-15T08:26:08.672Z,5.82
2022-10-15T08:28:36.856Z,6.47
2022-10-15T08:31:06.269Z,5.70
2022-10-15T08:33:35.790Z,5.85
2022-10-15T08:36:07.907Z,5.85
2022-10-15T08:38:36.632Z,5.82
2022-10-15T08:41:30.512Z,5.88
2022-10-15T08:43:59.891Z,5.63
2022-10-15T08:46:46.951Z,5.95
2022-10-15T08:49:48.171Z,5.60
2022-10-15T08:52:25.702Z,5.70
2022-10-15T08:54:56.933Z,5.70
2022-10-15T08:57:44.037Z,5.97
2022-10-15T09:00:15.285Z,4.97
2022-10-15T09:02:50.593Z,5.82
2022-10-15T09:05:33.857Z,6.07
2022-10-15T09:08:32.966Z,5.68
2022-10-15T09:11:09.588Z,5.65
2022-10-15T09:13:44.536Z,5.53
2022-10-15T09:16:22.941Z,5.82
2022-10-15T09:18:52.642Z,6.07
2022-10-15T09:21:24.214Z,5.97
2022-10-15T09:24:04.591Z,6.43
2022-10-15T09:26:52.092Z,5.47
2022-10-15T09:30:02.204Z,5.38
2022-10-15T09:32:42.861Z,6.18
2022-10-15T09:35:19.188Z,5.63
2022-10-15T09:38:01.091Z,6.65
2022-10-15T09:40:54.295Z,6.03
2022-10-15T09:43:31.956Z,5.72
2022-10-15T09:46:03.121Z,5.43
2022-10-15T09:48:36.423Z,6.15
2022-10-15T09:51:24.926Z,6.65
2022-10-15T09:54:00.978Z,6.50
2022-10-15T09:56:54.087Z,5.90
2022-10-15T09:59:24.424Z,6.40
2022-10-15T10:02:00.709Z,7.05
2022-10-15T10:04:32.941Z,7.15
2022-10-15T10:07:07.568Z,7.03
2022-10-15T10:09:51.966Z,6.45
2022-10-15T10:12:27.454Z,6.88
2022-10-15T10:15:02.790Z,6.95
2022-10-15T10:17:32.428Z,6.63
2022-10-15T10:20:09.899Z,6.93
2022-10-15T10:22:51.486Z,6.95
2022-10-15T10:25:42.533Z,6.78
2022-10-15T10:28:13.790Z,7.05
2022-10-15T10:30:57.006Z,6.93
2022-10-15T10:33:39.595Z,6.78
2022-10-15T10:36:19.134Z,6.75
2022-10-15T10:39:15.402Z,7.50
2022-10-15T10:42:00.631Z,7.15
2022-10-15T10:44:47.122Z,8.15
2022-10-15T10:47:20.657Z,7.15
2022-10-15T10:49:54.334Z,7.40
2022-10-15T10:52:32.259Z,7.75
2022-10-15T10:55:19.010Z,7.90
2022-10-15T10:57:57.791Z,8.35
2022-10-15T11:00:44.756Z,8.85
2022-10-15T11:03:36.333Z,8.68
2022-10-15T11:06:41.862Z,8.68
2022-10-15T11:09:19.166Z,8.52
2022-10-15T11:11:53.162Z,8.20
2022-10-15T11:14:54.719Z,8.27
2022-10-15T11:17:55.768Z,8.27
2022-10-15T11:20:45.577Z,7.57
2022-10-15T11:24:01.769Z,7.93
2022-10-15T11:26:59.266Z,7.90
2022-10-15T11:30:30.744Z,8.07
2022-10-15T11:33:17.180Z,7.72
2022-10-15T11:36:06.738Z,8.30
2022-10-15T11:38:41.866Z,7.78
2022-10-15T11:41:28.171Z,8.05
2022-10-15T11:43:56.660Z,8.18
2022-10-15T11:46:31.192Z,7.93
2022-10-15T11:49:08.352Z,7.57
2022-10-15T11:52:12.205Z,7.03
2022-10-15T11:55:02.743Z,8.18
2022-10-15T11:57:34.259Z,7.53
2022-10-15T12:00:45.501Z,7.25
2022-10-15T12:03:21.983Z,7.30
2022-10-15T12:06:07.112Z,7.82
2022-10-15T12:08:39.196Z,7.28
2022-10-15T12:11:46.014Z,7.80
2022-10-15T12:14:29.668Z,7.28
2022-10-15T12:17:23.024Z,7.63
2022-10-15T12:19:54.819Z,7.50
2022-10-15T12:22:50.258Z,7.03
2022-10-15T12:25:37.163Z,7.45
2022-10-15T12:28:21.132Z,7.72
2022-10-15T12:31:04.057Z,7.47
2022-10-15T12:33:39.686Z,8.50
2022-10-15T12:36:28.561Z,7.55
2022-10-15T12:39:40.535Z,7.22
2022-10-15T12:42:24.290Z,7.00
2022-10-15T12:44:52.761Z,6.68
2022-10-15T12:47:46.940Z,7.20
2022-10-15T12:50:33.265Z,6.88
2022-10-15T12:53:22.322Z,7.30
2022-10-15T12:56:10.401Z,7.22
2022-10-15T12:58:48.049Z,6.10
2022-10-15T13:01:16.112Z,6.95
2022-10-15T13:03:51.326Z,6.72
2022-10-15T13:06:21.951Z,5.90
2022-10-15T13:09:11.260Z,6.50
2022-10-15T13:11:55.247Z,6.32
2022-10-15T13:14:31.756Z,5.95
2022-10-15T13:17:13.875Z,6.72
2022-10-15T13:19:58.215Z,5.47
2022-10-15T13:22:31.220Z,5.70
2022-10-15T13:24:59.554Z,5.22
2022-10-15T13:27:37.843Z,6.05
2022-10-15T13:30:16.948Z,5.57
2022-10-15T13:32:54.289Z,5.72
2022-10-15T13:35:35.049Z,6.40
2022-10-15T13:38:05.352Z,6.32
2022-10-15T13:40:33.635Z,6.90
2022-10-15T13:43:04.302Z,6.70
2022-10-15T13:45:33.554Z,6.50
2022-10-15T13:48:02.079Z,6.55
2022-10-15T13:50:34.993Z,6.07
2022-10-15T13:53:18.944Z,7.13
2022-10-15T13:55:51.598Z,7.22
2022-10-15T13:58:26.674Z,5.78
2022-10-15T14:01:18.199Z,6.25
2022-10-15T14:03:56.367Z,5.93
2022-10-15T14:06:32.505Z,6.97
2022-10-15T14:09:20.559Z,7.90
2022-10-15T14:11:48.838Z,7.22
2022-10-15T14:14:37.764Z,6.63
2022-10-15T14:17:17.073Z,6.90
2022-10-15T14:20:26.905Z,6.68
2022-10-15T14:22:52.978Z,6.97
2022-10-15T14:25:25.207Z,7.00
2022-10-15T14:27:53.600Z,6.85
2022-10-15T14:30:33.160Z,7.00
2022-10-15T14:33:01.788Z,6.75
2022-10-15T14:35:34.482Z,7.43
2022-10-15T14:38:16.759Z,7.18
2022-10-15T14:41:06.271Z,6.88
2022-10-15T14:43:38.011Z,6.97
2022-10-15T14:46:13.088Z,8.05
2022-10-15T14:48:44.980Z,7.05
2022-10-15T14:51:21.726Z,7.32
2022-10-15T14:53:51.497Z,7.10
2022-10-15T14:56:24.626Z,7.68
2022-10-15T14:58:58.042Z,7.18
2022-10-15T15:01:27.935Z,7.80
2022-10-15T15:03:57.402Z,7.40
2022-10-15T15:06:25.882Z,8.65
2022-10-15T15:08:54.276Z,7.65
2022-10-15T15:11:25.335Z,7.57
2022-10-15T15:13:54.244Z,7.78
2022-10-15T15:16:23.618Z,7.90
2022-10-15T15:18:52.305Z,7.28
2022-10-15T15:21:24.531Z,7.15
2022-10-15T15:23:52.871Z,7.20
2022-10-15T15:26:22.415Z,7.30
2022-10-15T15:28:50.958Z,7.43
2022-10-15T15:31:19.766Z,8.25
2022-10-15T15:33:48.195Z,7.32
2022-10-15T15:36:22.581Z,8.00
2022-10-15T15:38:58.831Z,7.50
2022-10-15T15:41:27.089Z,7.47
2022-10-15T15:43:56.237Z,7.50
2022-10-15T15:46:24.306Z,7.90
2022-10-15T15:48:52.606Z,8.73
2022-10-15T15:51:28.957Z,7.78
2022-10-15T15:53:58.157Z,7.63
2022-10-15T15:56:26.435Z,9.10
2022-10-15T15:58:54.402Z,8.50
2022-10-15T16:01:23.453Z,8.75
2022-10-15T16:03:51.559Z,9.52
2022-10-15T16:06:19.737Z,9.63
2022-10-15T16:08:51.337Z,8.13
2022-10-15T16:11:19.452Z,8.50
2022-10-15T16:13:47.445Z,8.25
2022-10-15T16:16:16.005Z,8.55
2022-10-15T16:18:43.956Z,9.30
2022-10-15T16:21:12.191Z,10.05
2022-10-15T16:23:41.140Z,10.07
2022-10-15T16:26:09.106Z,12.45
2022-10-15T16:28:37.781Z,10.18
2022-10-15T16:31:37.012Z,13.63
2022-10-15T16:34:05.180Z,15.18
2022-10-15T16:36:33.985Z,12.82
2022-10-15T16:39:06.968Z,20.13
2022-10-15T16:44:02.837Z,11.07
2022-10-15T16:46:31.099Z,13.45
2022-10-15T16:48:59.728Z,12.52
2022-10-15T16:51:28.508Z,13.07
2022-10-15T16:53:59.194Z,12.10
2022-10-15T16:56:29.692Z,13.07
2022-10-15T16:58:57.809Z,11.95
2022-10-15T17:05:06.025Z,12.98
2022-10-15T17:07:34.679Z,12.52
2022-10-15T17:10:03.486Z,14.35
2022-10-15T17:12:32.387Z,13.13
2022-10-15T17:15:00.715Z,12.55
2022-10-15T17:17:29.389Z,13.32
2022-10-15T17:19:57.875Z,12.25
2022-10-15T17:22:26.817Z,13.48
2022-10-15T17:24:54.931Z,14.18
2022-10-15T17:27:23.646Z,13.00
2022-10-15T17:29:51.587Z,13.50
2022-10-15T17:32:23.582Z,11.38
2022-10-15T17:34:52.917Z,15.30
2022-10-15T17:37:21.130Z,13.95
2022-10-15T17:39:49.201Z,14.43
2022-10-15T17:42:18.967Z,15.57
2022-10-15T17:44:47.030Z,15.95
2022-10-15T17:47:15.674Z,15.30
2022-10-15T17:49:44.354Z,15.90
2022-10-15T17:52:13.840Z,14.65
2022-10-15T17:54:41.830Z,15.70
2022-10-15T17:57:09.852Z,16.23
2022-10-15T17:59:38.269Z,16.73
2022-10-15T18:02:06.795Z,17.23
2022-10-15T18:04:39.720Z,15.43
2022-10-15T18:07:09.086Z,15.02
2022-10-15T18:09:37.897Z,15.68
2022-10-15T18:12:06.000Z,15.60
2022-10-15T18:14:35.312Z,16.38
2022-10-15T18:17:05.365Z,15.55
2022-10-15T18:19:33.268Z,15.40
2022-10-15T18:22:01.261Z,15.82
2022-10-15T18:24:29.323Z,17.00
2022-10-15T18:26:57.389Z,14.45
2022-10-15T18:29:25.978Z,14.82
2022-10-15T18:31:57.588Z,15.90
2022-10-15T18:36:56.743Z,16.30
2022-10-15T18:39:25.417Z,15.93
2022-10-15T18:41:54.319Z,15.52
2022-10-15T18:44:23.541Z,17.75
2022-10-15T18:46:52.488Z,17.00
2022-10-15T18:49:21.572Z,15.57
2022-10-15T18:51:52.058Z,16.23
2022-10-15T18:54:22.043Z,16.98
2022-10-15T18:56:52.801Z,16.20
2022-10-15T18:59:22.302Z,17.20
2022-10-15T19:01:53.352Z,16.52
2022-10-15T19:04:23.868Z,16.25
2022-10-15T19:06:53.707Z,16.67
2022-10-15T19:09:24.503Z,15.13
2022-10-15T19:11:54.607Z,16.13
2022-10-15T19:14:25.090Z,15.50
2022-10-15T19:16:54.480Z,14.10
2022-10-15T19:19:24.703Z,15.30
2022-10-15T19:21:53.554Z,14.10
2022-10-15T19:24:22.185Z,14.75
2022-10-15T19:26:51.849Z,14.80
2022-10-15T19:29:21.001Z,15.98
2022-10-15T19:31:52.552Z,15.93
2022-10-15T19:34:22.777Z,13.65
2022-10-15T19:36:51.767Z,14.98
2022-10-15T19:39:22.665Z,13.93
2022-10-15T19:41:52.688Z,14.85
2022-10-15T19:44:25.679Z,13.77
2022-10-15T19:46:56.297Z,16.38
2022-10-15T19:49:25.807Z,15.52
2022-10-15T19:51:56.860Z,15.93
2022-10-15T19:56:58.972Z,13.77
2022-10-15T19:59:28.247Z,15.32
2022-10-15T20:01:56.285Z,16.20
2022-10-15T20:04:24.818Z,14.18
2022-10-15T20:06:53.251Z,14.23
2022-10-15T20:09:21.996Z,14.13
2022-10-15T20:11:50.241Z,17.15
2022-10-15T20:14:18.200Z,14.88
2022-10-15T20:16:47.006Z,13.20
2022-10-15T20:19:16.133Z,15.30
2022-10-15T20:24:20.722Z,14.85
2022-10-15T20:26:53.936Z,14.65
2022-10-15T20:29:25.677Z,15.80
2022-10-15T20:32:02.014Z,14.88
2022-10-15T20:34:39.768Z,15.00
2022-10-15T20:37:08.419Z,15.07
2022-10-15T20:40:01.757Z,15.23
2022-10-15T20:42:34.185Z,15.10
2022-10-15T20:45:02.187Z,14.70
2022-10-15T20:47:33.487Z,16.95
2022-10-15T20:50:05.265Z,16.75
2022-10-15T20:52:34.779Z,16.23
2022-10-15T20:55:03.133Z,15.38
2022-10-15T20:57:31.884Z,15.02
2022-10-15T21:00:00.048Z,14.40
2022-10-15T21:02:28.658Z,15.07
2022-10-15T21:04:57.082Z,17.05
2022-10-15T21:07:25.674Z,15.57
2022-10-15T21:09:54.215Z,15.40
2022-10-15T21:12:23.660Z,15.68
2022-10-15T21:14:52.255Z,15.25
2022-10-15T21:17:20.891Z,15.70
2022-10-15T21:19:51.824Z,16.10
2022-10-15T21:22:21.319Z,15.25
2022-10-15T21:24:49.788Z,15.55
2022-10-15T21:27:17.790Z,14.80
2022-10-15T21:29:46.081Z,15.18
2022-10-15T21:32:14.117Z,14.57
2022-10-15T21:34:42.387Z,14.82
2022-10-15T21:37:10.486Z,15.10
2022-10-15T21:39:38.577Z,17.17
2022-10-15T21:42:07.153Z,17.15
2022-10-15T21:44:35.401Z,14.85
2022-10-15T21:47:05.373Z,15.18
2022-10-15T21:49:33.326Z,14.65
2022-10-15T21:52:01.452Z,15.82
2022-10-15T21:54:30.588Z,12.70
2022-10-15T21:56:58.603Z,13.23
2022-10-15T21:59:26.516Z,14.30
2022-10-15T22:01:54.862Z,13.05
2022-10-15T22:04:23.382Z,13.98
2022-10-15T22:06:51.360Z,12.88
2022-10-15T22:09:20.114Z,13.60
2022-10-15T22:11:49.125Z,14.45
2022-10-15T22:14:17.715Z,12.40
2022-10-15T22:16:45.736Z,12.68
2022-10-15T22:19:15.365Z,12.93
2022-10-15T22:21:44.493Z,13.65
2022-10-15T22:24:17.165Z,13.32
2022-10-15T22:26:48.223Z,14.82
2022-10-15T22:29:20.462Z,15.10
2022-10-15T22:31:48.737Z,14.00
2022-10-15T22:34:17.827Z,13.35
2022-10-15T22:36:46.253Z,12.30
2022-10-15T22:39:17.000Z,13.45
2022-10-15T22:41:46.970Z,13.32
2022-10-15T22:44:18.297Z,13.50
2022-10-15T22:46:49.296Z,13.10
2022-10-15T22:49:19.881Z,12.85
2022-10-15T22:51:48.951Z,13.30
2022-10-15T22:54:19.762Z,13.20
2022-10-15T22:56:48.062Z,12.18
2022-10-15T22:59:16.659Z,12.55
2022-10-15T23:01:47.947Z,13.07
2022-10-15T23:04:17.047Z,13.35
2022-10-15T23:06:45.242Z,14.73
2022-10-15T23:09:18.310Z,14.88
2022-10-15T23:11:47.241Z,15.45
2022-10-15T23:14:16.773Z,15.77
2022-10-15T23:16:47.582Z,16.05
2022-10-15T23:19:22.338Z,16.50
2022-10-15T23:21:56.659Z,17.27
2022-10-15T23:24:26.766Z,17.15
2022-10-15T23:26:54.963Z,17.55
2022-10-15T23:29:25.837Z,17.52
2022-10-15T23:31:55.433Z,18.45
2022-10-15T23:34:26.133Z,16.02
2022-10-15T23:36:54.777Z,15.40
2022-10-15T23:39:25.664Z,14.80
2022-10-15T23:41:54.801Z,14.18
2022-10-15T23:44:25.768Z,13.73
2022-10-15T23:46:54.420Z,14.55
2022-10-15T23:49:22.397Z,14.57
2022-10-15T23:51:50.405Z,13.80
2022-10-15T23:54:19.616Z,16.23
2022-10-15T23:56:48.455Z,16.60
2022-10-15T23:59:18.370Z,15.45
